KHOT

Memorial Field Airport

Hot Springs, Arkansas, USA
METAR KHOT 180253Z AUTO 00000KT 7SM OVC004 08/08 A3012 RMK AO2 CIG 003V007 SLP200 T00830083 50004
Observed Flight Rules
Dec-18 @ 02:53 UTC (28 minutes ago) Instrument Flight Rules
Wind Visibility Clouds
Calm 7 miles
  • Overcast at 400' AGL
Temperatures Readings
Current 8°C / 46°F
Dewpoint 8°C / 46°F
Humidity 100%
Altimeter 30.12" Hg
Pressure 1020 hPa
Elevation 162
METAR KHOT 180253Z AUTO 00000KT 7SM OVC004 08/08 A3012 RMK AO2 CIG 003V007 SLP200 T00830083 50004
Observed Flight Rules
Dec-18 @ 02:53 UTC
(28 minutes ago)
LIFR
Wind Visibility
Calm 7 miles
Clouds
  • Overcast at 400' AGL
Temperature Dewpoint
8°C / 46°F 8°C / 46°F
Humidity Altimeter Pressure
100% 30.12" Hg 1020 hPa